Time;durP1;ratioP1;P1;durP2;ratioP2;P2;SDS_P1;SDS_P2;PMS_P1;PMS_P2;Temp;Humidity;BMP_temperature;BMP_pressure;BME280_temperature;BME280_humidity;BME280_pressure;Samples;Min_cycle;Max_cycle;Signal;HPM_P1;HPM_P2
2021/04/14 00:00:23;;;;;;;14.60;9.48;;;;;;;7.03;100.00;103428.16;5050772;28;20037;-64
2021/04/14 00:02:48;;;;;;;16.05;9.85;;;;;;;6.98;100.00;103428.63;5050918;28;20132;-65
2021/04/14 00:05:17;;;;;;;13.63;9.75;;;;;;;6.95;100.00;103435.22;5050834;28;20131;-64
2021/04/14 00:07:43;;;;;;;14.38;10.07;;;;;;;6.92;100.00;103432.78;5050705;28;20380;-64
2021/04/14 00:10:11;;;;;;;15.32;10.32;;;;;;;6.91;100.00;103436.53;5050700;28;20475;-63
2021/04/14 00:12:36;;;;;;;18.55;11.18;;;;;;;6.90;100.00;103428.53;5050721;28;20090;-64
2021/04/14 00:15:08;;;;;;;17.70;11.18;;;;;;;6.91;100.00;103431.09;5050633;28;20037;-64
2021/04/14 00:17:33;;;;;;;14.48;10.93;;;;;;;6.94;100.00;103430.81;5050765;28;20025;-64
2021/04/14 00:19:59;;;;;;;15.93;12.02;;;;;;;6.96;100.00;103427.94;5050615;28;20110;-63
2021/04/14 00:22:25;;;;;;;17.05;12.35;;;;;;;6.95;100.00;103427.06;5050770;28;20090;-64
2021/04/14 00:24:50;;;;;;;21.17;11.93;;;;;;;6.98;100.00;103430.50;5050657;28;20543;-64
2021/04/14 00:27:16;;;;;;;18.25;10.75;;;;;;;6.97;100.00;103423.34;5050559;28;20037;-65
2021/04/14 00:29:42;;;;;;;18.20;11.63;;;;;;;6.93;100.00;103422.78;5050296;28;20040;-64
2021/04/14 00:32:08;;;;;;;17.50;11.02;;;;;;;6.91;100.00;103420.22;5050528;28;20060;-63
2021/04/14 00:34:34;;;;;;;18.58;11.43;;;;;;;6.87;100.00;103417.97;5050507;28;20121;-64
2021/04/14 00:37:00;;;;;;;15.43;11.20;;;;;;;6.83;100.00;103420.16;5050343;28;20475;-63
2021/04/14 00:39:26;;;;;;;18.42;11.13;;;;;;;6.78;100.00;103414.34;5049250;28;20450;-64
2021/04/14 00:41:54;;;;;;;15.23;10.13;;;;;;;6.76;100.00;103424.47;5050512;28;20036;-63
2021/04/14 00:44:20;;;;;;;18.85;12.10;;;;;;;6.74;100.00;103418.34;5050184;28;20033;-63
2021/04/14 00:46:45;;;;;;;20.63;13.75;;;;;;;6.70;100.00;103416.94;5050428;28;20037;-64
2021/04/14 00:49:13;;;;;;;20.13;13.38;;;;;;;6.66;100.00;103415.56;5050502;28;20511;-63
2021/04/14 00:51:40;;;;;;;20.05;13.27;;;;;;;6.64;100.00;103417.56;5051231;28;20037;-64
2021/04/14 00:54:06;;;;;;;19.70;14.13;;;;;;;6.60;100.00;103421.59;5054370;28;20041;-63
2021/04/14 00:56:31;;;;;;;19.40;14.07;;;;;;;6.56;100.00;103423.75;5054861;28;20048;-64
2021/04/14 00:58:57;;;;;;;17.33;12.77;;;;;;;6.53;100.00;103425.94;5054037;28;20049;-64
2021/04/14 01:01:23;;;;;;;21.38;13.15;;;;;;;6.53;100.00;103423.22;5054254;28;20048;-64
2021/04/14 01:03:52;;;;;;;17.25;12.48;;;;;;;6.52;100.00;103418.78;5054215;28;20490;-64
2021/04/14 01:06:22;;;;;;;16.08;11.75;;;;;;;6.49;100.00;103414.53;5054020;28;20044;-63
2021/04/14 01:08:48;;;;;;;16.73;11.20;;;;;;;6.45;100.00;103423.97;5054092;28;20048;-63
2021/04/14 01:11:14;;;;;;;19.33;12.38;;;;;;;6.44;100.00;103424.13;5054108;28;20483;-64
2021/04/14 01:13:40;;;;;;;17.67;12.00;;;;;;;6.40;100.00;103414.56;5052490;28;20112;-64
2021/04/14 01:16:07;;;;;;;16.45;11.75;;;;;;;6.39;100.00;103404.72;5054116;28;20128;-64
2021/04/14 01:18:36;;;;;;;17.50;11.80;;;;;;;6.36;100.00;103408.59;5053874;28;20049;-64
2021/04/14 01:21:05;;;;;;;16.58;11.80;;;;;;;6.35;100.00;103402.31;5053876;28;20037;-64
2021/04/14 01:23:31;;;;;;;18.20;11.50;;;;;;;6.35;100.00;103401.44;5053788;28;20033;-63
2021/04/14 01:25:59;;;;;;;14.55;10.70;;;;;;;6.36;100.00;103405.88;5053767;28;20509;-63
2021/04/14 01:28:28;;;;;;;14.93;11.75;;;;;;;6.34;100.00;103399.75;5053664;28;20511;-63
2021/04/14 01:30:55;;;;;;;19.30;11.88;;;;;;;6.31;100.00;103406.34;5054028;28;20090;-63
2021/04/14 01:33:22;;;;;;;16.65;12.50;;;;;;;6.32;100.00;103412.63;5053607;28;20042;-63
2021/04/14 01:35:47;;;;;;;19.60;13.15;;;;;;;6.29;100.00;103407.50;5053440;28;20032;-64
2021/04/14 01:38:13;;;;;;;20.70;13.00;;;;;;;6.29;100.00;103412.94;5053551;28;20414;-64
2021/04/14 01:40:39;;;;;;;20.80;13.20;;;;;;;6.26;100.00;103408.66;5053514;28;20041;-64
2021/04/14 01:43:05;;;;;;;19.73;13.45;;;;;;;6.27;100.00;103409.50;5053287;28;20045;-64
2021/04/14 01:45:35;;;;;;;18.02;13.65;;;;;;;6.28;100.00;103411.22;5053418;28;20040;-64
2021/04/14 01:48:01;;;;;;;23.45;14.63;;;;;;;6.27;100.00;103412.22;5053459;28;20441;-64
2021/04/14 01:50:27;;;;;;;21.95;14.85;;;;;;;6.24;100.00;103415.22;5053265;28;20082;-64
2021/04/14 01:52:54;;;;;;;23.88;13.68;;;;;;;6.19;100.00;103407.53;5053338;28;20494;-64
2021/04/14 01:55:20;;;;;;;18.10;13.68;;;;;;;6.12;100.00;103405.59;5053217;28;20036;-64
2021/04/14 01:57:47;;;;;;;21.08;15.15;;;;;;;6.08;100.00;103415.03;5052863;28;20110;-64
2021/04/14 02:00:20;;;;;;;22.45;14.13;;;;;;;6.04;100.00;103414.44;5053157;28;20048;-64
2021/04/14 02:02:46;;;;;;;26.13;14.82;;;;;;;6.01;100.00;103423.75;5052584;28;20071;-64
2021/04/14 02:05:13;;;;;;;19.15;15.93;;;;;;;5.98;100.00;103412.34;5052872;28;20514;-64
2021/04/14 02:07:38;;;;;;;20.45;15.18;;;;;;;5.97;100.00;103407.94;5053056;28;20041;-64
2021/04/14 02:10:07;;;;;;;20.52;16.45;;;;;;;5.96;100.00;103406.22;5053009;28;20045;-64
2021/04/14 02:12:32;;;;;;;21.30;15.60;;;;;;;5.95;100.00;103407.22;5052854;28;20048;-64
2021/04/14 02:14:59;;;;;;;21.75;16.17;;;;;;;5.94;100.00;103414.50;5051419;28;20037;-64
2021/04/14 02:17:24;;;;;;;20.40;15.93;;;;;;;5.93;100.00;103420.09;5051591;28;20036;-63
2021/04/14 02:19:53;;;;;;;24.88;17.05;;;;;;;5.90;100.00;103417.66;5050182;28;20135;-65
2021/04/14 02:22:19;;;;;;;23.15;17.55;;;;;;;5.88;100.00;103414.19;5052876;28;20064;-63
2021/04/14 02:24:44;;;;;;;27.30;17.60;;;;;;;5.84;100.00;103418.22;5051197;28;20033;-64
2021/04/14 02:27:10;;;;;;;21.63;16.58;;;;;;;5.80;100.00;103422.22;5052639;28;20033;-64
2021/04/14 02:29:35;;;;;;;25.17;16.83;;;;;;;5.78;100.00;103425.09;5052576;28;20037;-64
2021/04/14 02:32:01;;;;;;;27.85;18.17;;;;;;;5.75;100.00;103418.13;5052530;28;20040;-64
2021/04/14 02:34:27;;;;;;;25.55;17.33;;;;;;;5.74;100.00;103421.81;5052357;28;20566;-64
2021/04/14 02:36:53;;;;;;;26.17;17.10;;;;;;;5.73;100.00;103422.84;5052978;28;20043;-64
2021/04/14 02:39:18;;;;;;;27.17;18.00;;;;;;;5.71;100.00;103416.66;5052384;28;20045;-64
2021/04/14 02:41:46;;;;;;;27.00;17.55;;;;;;;5.70;100.00;103412.25;5052447;28;20384;-64
2021/04/14 02:44:11;;;;;;;26.63;18.10;;;;;;;5.68;100.00;103414.25;5052296;28;20040;-64
2021/04/14 02:46:37;;;;;;;25.35;17.35;;;;;;;5.68;100.00;103414.25;5052264;28;20494;-63
2021/04/14 02:49:02;;;;;;;25.42;16.52;;;;;;;5.67;100.00;103408.97;5052046;28;20045;-64
2021/04/14 02:51:28;;;;;;;26.52;17.58;;;;;;;5.66;100.00;103404.56;5052205;28;20039;-64
2021/04/14 02:53:54;;;;;;;24.95;16.60;;;;;;;5.65;100.00;103398.28;5052130;28;20041;-64
2021/04/14 02:56:21;;;;;;;26.42;17.27;;;;;;;5.63;100.00;103405.72;5052122;28;20475;-64
2021/04/14 02:58:47;;;;;;;26.10;17.25;;;;;;;5.61;100.00;103410.44;5051732;28;20060;-64
2021/04/14 03:01:17;;;;;;;27.48;16.90;;;;;;;5.57;100.00;103406.31;5052078;28;20439;-63
2021/04/14 03:03:44;;;;;;;27.40;17.02;;;;;;;5.56;100.00;103410.03;5051874;28;20449;-63
2021/04/14 03:06:11;;;;;;;25.10;17.73;;;;;;;5.54;100.00;103420.13;5051809;28;20464;-63
2021/04/14 03:08:37;;;;;;;26.65;17.58;;;;;;;5.52;100.00;103414.00;5051942;28;20422;-65
2021/04/14 03:11:03;;;;;;;26.80;17.40;;;;;;;5.51;100.00;103404.16;5051929;28;20037;-64
2021/04/14 03:13:29;;;;;;;27.67;17.40;;;;;;;5.51;100.00;103409.59;5051059;28;20037;-64
2021/04/14 03:15:55;;;;;;;21.63;16.05;;;;;;;5.50;100.00;103413.31;5051304;28;20047;-64
2021/04/14 03:18:21;;;;;;;22.52;15.68;;;;;;;5.49;100.00;103416.16;5051494;28;20041;-63
2021/04/14 03:20:47;;;;;;;22.95;16.33;;;;;;;5.47;100.00;103405.47;5051517;28;20041;-64
2021/04/14 03:23:15;;;;;;;25.30;16.52;;;;;;;5.46;100.00;103417.31;5051604;28;20090;-63
2021/04/14 03:25:40;;;;;;;26.17;16.77;;;;;;;5.42;100.00;103407.78;5051420;28;20037;-64
2021/04/14 03:28:06;;;;;;;22.83;16.25;;;;;;;5.41;100.00;103411.47;5050069;28;20041;-64
2021/04/14 03:30:33;;;;;;;27.35;15.85;;;;;;;5.40;100.00;103412.47;5051372;28;20478;-64
2021/04/14 03:32:59;;;;;;;22.95;16.20;;;;;;;5.37;100.00;103410.88;5051482;28;20047;-64
2021/04/14 03:35:27;;;;;;;27.52;17.75;;;;;;;5.35;100.00;103401.19;5051319;28;20045;-63
2021/04/14 03:37:52;;;;;;;25.80;17.48;;;;;;;5.34;100.00;103399.50;5051406;28;20132;-63
2021/04/14 03:40:19;;;;;;;25.90;16.27;;;;;;;5.32;100.00;103401.50;5051215;28;20538;-63
2021/04/14 03:42:44;;;;;;;25.83;16.15;;;;;;;5.30;100.00;103403.50;5051517;28;20479;-63
2021/04/14 03:45:16;;;;;;;27.02;17.15;;;;;;;5.29;100.00;103399.06;5051215;28;20040;-64
2021/04/14 03:47:42;;;;;;;28.60;17.85;;;;;;;5.28;100.00;103405.50;5051204;28;20041;-63
2021/04/14 03:50:12;;;;;;;26.95;18.15;;;;;;;5.27;100.00;103403.78;5051029;28;20049;-64
2021/04/14 03:52:38;;;;;;;25.75;17.35;;;;;;;5.25;100.00;103394.97;5051142;28;20443;-63
2021/04/14 03:55:06;;;;;;;24.67;16.60;;;;;;;5.21;100.00;103396.25;5051073;28;20045;-63
2021/04/14 03:57:31;;;;;;;25.50;16.13;;;;;;;5.19;100.00;103401.78;5050668;28;20032;-64
2021/04/14 03:59:58;;;;;;;24.77;16.65;;;;;;;5.17;100.00;103402.94;5050934;28;20885;-64
2021/04/14 04:02:24;;;;;;;25.02;16.40;;;;;;;5.11;100.00;103402.53;5050943;28;20511;-64
2021/04/14 04:04:50;;;;;;;30.77;17.85;;;;;;;5.10;100.00;103398.09;5050784;28;20044;-64
2021/04/14 04:07:15;;;;;;;30.75;17.65;;;;;;;5.09;100.00;103401.81;5050957;28;20380;-64
2021/04/14 04:09:42;;;;;;;29.13;16.90;;;;;;;5.08;100.00;103400.09;5050728;28;20486;-64
2021/04/14 04:12:09;;;;;;;28.33;16.20;;;;;;;5.09;100.00;103401.81;5050741;28;20048;-63
2021/04/14 04:14:45;;;;;;;26.90;16.73;;;;;;;5.09;100.00;103396.38;5050630;28;20045;-63
2021/04/14 04:17:11;;;;;;;26.55;15.40;;;;;;;5.07;100.00;103398.41;5050836;28;20047;-63
2021/04/14 04:19:38;;;;;;;25.23;16.17;;;;;;;5.05;100.00;103408.53;5050721;28;20033;-64
2021/04/14 04:22:04;;;;;;;24.00;16.10;;;;;;;5.03;100.00;103413.22;5050892;28;20072;-64
2021/04/14 04:24:29;;;;;;;26.80;17.55;;;;;;;5.02;100.00;103400.66;5050540;28;20041;-64
2021/04/14 04:26:55;;;;;;;26.67;17.60;;;;;;;5.03;100.00;103402.41;5050242;28;20037;-64
2021/04/14 04:29:20;;;;;;;27.27;16.15;;;;;;;5.02;100.00;103395.22;5050472;28;20093;-64
2021/04/14 04:31:46;;;;;;;25.75;16.27;;;;;;;5.02;100.00;103400.66;5050580;28;20040;-64
2021/04/14 04:34:11;;;;;;;24.10;16.77;;;;;;;5.02;100.00;103410.63;5050371;28;20032;-63
2021/04/14 04:36:37;;;;;;;25.50;16.35;;;;;;;5.00;100.00;103413.50;5050651;28;20429;-64
2021/04/14 04:39:04;;;;;;;25.65;16.38;;;;;;;4.98;100.00;103410.06;5050645;28;20033;-63
2021/04/14 04:41:34;;;;;;;25.25;15.55;;;;;;;4.96;100.00;103411.22;5050337;28;20059;-64
2021/04/14 04:43:59;;;;;;;31.42;17.50;;;;;;;4.95;100.00;103404.09;5049011;28;20041;-64
2021/04/14 04:46:25;;;;;;;23.58;16.02;;;;;;;4.94;100.00;103411.34;5050438;28;20045;-64
2021/04/14 04:48:51;;;;;;;25.52;15.25;;;;;;;4.93;100.00;103412.34;5050331;28;20202;-64
2021/04/14 04:51:17;;;;;;;25.98;16.38;;;;;;;4.92;100.00;103404.38;5050368;28;20145;-63
2021/04/14 04:53:42;;;;;;;24.17;15.27;;;;;;;4.90;100.00;103407.22;5050406;28;20495;-63
2021/04/14 04:56:08;;;;;;;22.33;14.75;;;;;;;4.89;100.00;103410.94;5050412;28;20040;-64
2021/04/14 04:58:34;;;;;;;23.67;15.05;;;;;;;4.88;100.00;103408.38;5050220;28;20487;-64
2021/04/14 05:00:59;;;;;;;21.83;14.38;;;;;;;4.85;100.00;103414.91;5050351;28;20052;-64
2021/04/14 05:03:28;;;;;;;20.58;14.90;;;;;;;4.81;100.00;103413.47;5050072;28;20043;-63
2021/04/14 05:05:56;;;;;;;22.50;15.50;;;;;;;4.79;100.00;103416.34;5050345;28;20068;-64
2021/04/14 05:08:22;;;;;;;22.67;15.02;;;;;;;4.78;100.00;103413.78;5050463;28;20141;-63
2021/04/14 05:10:49;;;;;;;24.27;15.68;;;;;;;4.77;100.00;103417.47;5050073;28;20542;-63
2021/04/14 05:13:14;;;;;;;24.95;15.27;;;;;;;4.76;100.00;103416.63;5050255;28;20033;-63
2021/04/14 05:15:41;;;;;;;25.08;16.00;;;;;;;4.74;100.00;103412.34;5050228;28;20045;-64
2021/04/14 05:18:08;;;;;;;25.50;15.75;;;;;;;4.71;100.00;103423.47;5050042;28;20029;-63
2021/04/14 05:20:34;;;;;;;22.00;15.07;;;;;;;4.67;100.00;103417.44;5050180;28;20048;-63
2021/04/14 05:23:00;;;;;;;22.27;14.68;;;;;;;4.68;100.00;103418.31;5050142;28;20060;-63
2021/04/14 05:25:32;;;;;;;26.40;15.95;;;;;;;4.67;100.00;103417.44;5049825;28;20118;-63
2021/04/14 05:28:04;;;;;;;22.33;14.98;;;;;;;4.66;100.00;103425.72;5050301;28;20174;-64
2021/04/14 05:30:30;;;;;;;22.00;14.13;;;;;;;4.64;100.00;103422.28;5050115;28;20040;-63
2021/04/14 05:32:56;;;;;;;22.70;15.60;;;;;;;4.62;100.00;103418.88;5050282;28;20136;-64
2021/04/14 05:35:21;;;;;;;23.33;15.98;;;;;;;4.61;100.00;103425.28;5049909;28;20167;-63
2021/04/14 05:37:47;;;;;;;27.75;15.35;;;;;;;4.59;100.00;103420.00;5051181;28;20032;-64
2021/04/14 05:40:14;;;;;;;23.20;14.55;;;;;;;4.59;100.00;103429.97;5053373;28;20045;-63
2021/04/14 05:42:42;;;;;;;25.17;15.77;;;;;;;4.56;100.00;103436.53;5053596;28;20078;-64
2021/04/14 05:45:13;;;;;;;22.10;14.65;;;;;;;4.54;100.00;103436.69;5053546;28;20040;-63
2021/04/14 05:47:38;;;;;;;22.45;14.07;;;;;;;4.51;100.00;103436.97;5053249;28;20485;-63
2021/04/14 05:50:07;;;;;;;25.08;15.50;;;;;;;4.51;100.00;103447.78;5053477;28;20037;-63
2021/04/14 05:52:33;;;;;;;22.65;14.73;;;;;;;4.50;100.00;103448.75;5053230;28;20037;-64
2021/04/14 05:54:59;;;;;;;26.60;14.98;;;;;;;4.50;100.00;103443.34;5053108;28;20060;-64
2021/04/14 05:57:25;;;;;;;22.77;14.95;;;;;;;4.53;100.00;103448.50;5053093;28;20064;-63
2021/04/14 05:59:51;;;;;;;22.42;13.73;;;;;;;4.51;100.00;103450.50;5053011;28;20080;-64
2021/04/14 06:02:16;;;;;;;23.70;15.57;;;;;;;4.51;100.00;103450.50;5053077;28;20437;-64
2021/04/14 06:04:42;;;;;;;27.45;15.90;;;;;;;4.55;100.00;103451.06;5053146;28;20548;-64
2021/04/14 06:07:08;;;;;;;23.33;15.35;;;;;;;4.57;100.00;103453.63;5053556;28;20127;-64
2021/04/14 06:09:34;;;;;;;20.83;13.45;;;;;;;4.59;100.00;103452.50;5052855;28;20037;-64
2021/04/14 06:11:59;;;;;;;23.38;14.55;;;;;;;4.59;100.00;103451.63;5053108;28;20033;-64
2021/04/14 06:14:25;;;;;;;20.17;13.15;;;;;;;4.60;100.00;103461.47;5052894;28;20040;-64
2021/04/14 06:16:51;;;;;;;22.83;14.45;;;;;;;4.62;100.00;103462.19;5052757;28;20528;-63
2021/04/14 06:19:17;;;;;;;20.60;12.95;;;;;;;4.65;100.00;103461.91;5052872;28;20040;-64
2021/04/14 06:21:43;;;;;;;22.17;14.20;;;;;;;4.69;100.00;103468.78;5052751;28;20103;-63
2021/04/14 06:24:10;;;;;;;21.70;13.75;;;;;;;4.73;100.00;103470.19;5052658;28;20395;-63
2021/04/14 06:27:12;;;;;;;20.75;14.38;;;;;;;4.77;100.00;103474.34;5052559;28;20037;-63
2021/04/14 06:29:27;;;;;;;22.15;14.75;;;;;;;4.80;100.00;103460.50;5054179;28;20410;-63
2021/04/14 06:31:55;;;;;;;21.83;14.18;;;;;;;4.84;100.00;103460.09;5052916;28;20090;-64
2021/04/14 06:34:23;;;;;;;23.77;15.70;;;;;;;4.88;100.00;103471.53;5052567;28;20478;-64
2021/04/14 06:36:53;;;;;;;23.15;14.75;;;;;;;4.93;100.00;103471.94;5052708;28;20529;-64
2021/04/14 06:39:20;;;;;;;22.80;14.23;;;;;;;4.96;100.00;103466.25;5052327;28;20036;-64
2021/04/14 06:44:38;;;;;;;19.25;13.10;;;;;;;5.07;100.00;103478.81;5052263;28;20040;-63
2021/04/14 06:47:15;;;;;;;19.00;12.15;;;;;;;5.10;100.00;103471.25;5052235;28;20037;-64
2021/04/14 06:49:52;;;;;;;20.23;13.25;;;;;;;5.14;100.00;103469.09;5052202;28;20471;-64
2021/04/14 06:52:36;;;;;;;15.25;11.95;;;;;;;5.18;100.00;103469.66;5052348;28;20507;-63
2021/04/14 06:55:27;;;;;;;19.75;13.00;;;;;;;5.23;100.00;103473.69;5052021;28;20041;-64
2021/04/14 06:57:57;;;;;;;23.25;14.02;;;;;;;5.30;100.00;103473.97;5051517;28;20499;-64
2021/04/14 07:00:51;;;;;;;18.58;13.07;;;;;;;5.35;100.00;103477.09;5052055;28;20052;-63
2021/04/14 07:03:29;;;;;;;25.38;13.27;;;;;;;5.41;100.00;103484.66;5051853;28;20079;-63
2021/04/14 07:06:02;;;;;;;19.02;12.35;;;;;;;5.48;100.00;103488.50;5051882;28;20037;-63
2021/04/14 07:08:34;;;;;;;17.98;13.38;;;;;;;5.53;100.00;103488.91;5051843;28;20035;-63
2021/04/14 07:11:02;;;;;;;19.52;12.82;;;;;;;5.56;100.00;103479.66;5051976;28;20041;-64
2021/04/14 07:13:31;;;;;;;18.60;12.57;;;;;;;5.63;100.00;103478.94;5051741;28;20033;-64
2021/04/14 07:16:21;;;;;;;18.08;12.07;;;;;;;5.72;100.00;103479.91;5051424;28;20360;-63
2021/04/14 07:19:03;;;;;;;21.35;13.25;;;;;;;5.82;100.00;103485.31;5051725;28;20166;-63
2021/04/14 07:21:51;;;;;;;18.08;12.80;;;;;;;5.87;100.00;103485.72;5051682;28;20071;-63
2021/04/14 07:24:26;;;;;;;22.75;14.15;;;;;;;5.94;100.00;103476.06;5051423;28;20115;-63
2021/04/14 07:27:26;;;;;;;18.45;13.43;;;;;;;6.03;100.00;103472.44;5050229;28;20037;-64
2021/04/14 07:30:01;;;;;;;20.60;12.45;;;;;;;6.14;100.00;103474.97;5051488;28;20090;-64
2021/04/14 07:32:41;;;;;;;17.60;13.52;;;;;;;6.24;100.00;103481.22;5051375;28;20060;-64
2021/04/14 07:35:11;;;;;;;20.08;14.27;;;;;;;6.35;100.00;103467.44;5051389;28;20040;-64
2021/04/14 07:38:00;;;;;;;22.63;14.10;;;;;;;6.47;100.00;103465.41;5050526;28;20029;-63
2021/04/14 07:40:28;;;;;;;18.60;13.48;;;;;;;6.56;100.00;103463.63;5051194;28;20032;-63
2021/04/14 07:43:28;;;;;;;19.45;12.60;;;;;;;6.64;100.00;103466.47;5051395;28;20049;-69
2021/04/14 07:45:54;;;;;;;21.98;13.40;;;;;;;6.74;100.00;103464.53;5049013;28;20043;-70
2021/04/14 07:48:30;;;;;;;19.90;13.23;;;;;;;6.86;100.00;103460.59;5042742;28;20033;-64
2021/04/14 07:50:59;;;;;;;18.48;12.20;;;;;;;6.98;100.00;103452.22;5045426;28;20035;-69
2021/04/14 07:53:24;;;;;;;15.95;11.48;;;;;;;7.04;100.00;103457.03;5042008;28;20041;-68
2021/04/14 07:56:10;;;;;;;19.00;12.80;;;;;;;7.13;100.00;103462.41;5031208;28;20033;-66
2021/04/14 07:58:39;;;;;;;16.35;11.45;;;;;;;7.23;100.00;103456.88;5047157;28;20226;-67
2021/04/14 08:01:23;;;;;;;16.58;11.73;;;;;;;7.37;100.00;103464.47;5050235;28;20052;-68
2021/04/14 08:03:51;;;;;;;18.52;12.63;;;;;;;7.49;100.00;103457.78;5036728;28;20037;-72
2021/04/14 08:06:28;;;;;;;19.65;12.95;;;;;;;7.59;100.00;103459.56;5043357;28;20045;-67
2021/04/14 08:08:54;;;;;;;17.45;12.10;;;;;;;7.65;100.00;103457.06;5048146;28;20498;-61
2021/04/14 08:11:33;;;;;;;18.42;12.90;;;;;;;7.73;100.00;103453.53;5049527;28;20395;-64
2021/04/14 08:14:21;;;;;;;15.85;11.77;;;;;;;7.82;100.00;103452.59;5048093;28;20036;-67
2021/04/14 08:16:53;;;;;;;19.00;13.15;;;;;;;7.86;100.00;103451.25;5032320;28;20036;-66
2021/04/14 08:19:20;;;;;;;18.98;12.93;;;;;;;7.91;100.00;103448.91;5044349;28;20124;-66
2021/04/14 08:22:29;;;;;;;16.33;12.48;;;;;;;8.01;100.00;103452.38;5048558;28;20040;-65
2021/04/14 08:25:03;;;;;;;21.50;12.57;;;;;;;8.08;100.00;103450.69;5047979;28;20049;-64
2021/04/14 08:27:36;;;;;;;18.00;12.35;;;;;;;8.12;100.00;103443.91;5063742;28;20043;-64
2021/04/14 08:30:05;;;;;;;20.08;13.30;;;;;;;8.20;100.00;103444.97;5035130;28;20048;-65
2021/04/14 08:32:54;;;;;;;18.50;12.60;;;;;;;8.29;100.00;103453.00;5033027;28;20033;-66
2021/04/14 08:35:34;;;;;;;16.33;11.95;;;;;;;8.38;100.00;103438.47;5045722;28;20029;-64
2021/04/14 08:38:00;;;;;;;14.63;11.30;;;;;;;8.46;100.00;103445.78;5034687;28;20037;-67
2021/04/14 08:40:27;;;;;;;17.23;12.05;;;;;;;8.53;100.00;103446.88;5045958;28;20044;-68
2021/04/14 08:42:54;;;;;;;17.30;11.82;;;;;;;8.64;100.00;103453.88;5041596;28;20041;-69
2021/04/14 08:45:31;;;;;;;17.02;11.95;;;;;;;8.75;100.00;103457.16;5035477;28;20052;-67
2021/04/14 08:48:10;;;;;;;17.50;11.55;;;;;;;8.89;100.00;103455.66;5040401;28;20048;-67
2021/04/14 08:50:43;;;;;;;15.68;11.35;;;;;;;9.05;100.00;103452.94;5042667;28;20044;-66
2021/04/14 08:53:15;;;;;;;15.80;11.40;;;;;;;9.22;100.00;103464.75;5033611;28;20025;-67
2021/04/14 08:55:42;;;;;;;18.23;11.95;;;;;;;9.40;100.00;103467.31;5038149;28;20400;-68
2021/04/14 08:58:08;;;;;;;17.92;11.25;;;;;;;9.55;100.00;103468.31;5034244;28;20041;-65
2021/04/14 09:00:35;;;;;;;19.50;11.65;;;;;;;9.73;100.00;103470.88;5032564;28;20033;-71
2021/04/14 09:03:05;;;;;;;16.77;11.50;;;;;;;9.90;100.00;103464.38;5030455;28;20068;-72
2021/04/14 09:05:33;;;;;;;14.43;10.98;;;;;;;10.09;100.00;103462.28;5030350;28;20052;-69
2021/04/14 09:08:00;;;;;;;15.05;10.65;;;;;;;10.24;100.00;103461.41;5030303;28;20548;-71
2021/04/14 09:10:36;;;;;;;18.25;11.82;;;;;;;10.34;100.00;103461.19;5012679;28;20026;-67
2021/04/14 09:13:03;;;;;;;15.98;11.52;;;;;;;10.46;100.00;103465.25;5032102;28;20045;-67
2021/04/14 09:15:30;;;;;;;18.60;12.50;;;;;;;10.59;100.00;103464.69;5033928;28;20121;-69
2021/04/14 09:17:59;;;;;;;16.75;12.30;;;;;;;10.74;100.00;103467.47;5034044;28;20398;-68
2021/04/14 09:20:37;;;;;;;19.27;11.82;;;;;;;10.90;100.00;103461.94;5034063;28;20064;-67
2021/04/14 09:23:15;;;;;;;15.25;12.20;;;;;;;11.05;100.00;103460.13;5033961;28;20061;-70
2021/04/14 09:25:46;;;;;;;15.07;11.63;;;;;;;11.17;100.00;103453.19;5033861;28;20116;-70
2021/04/14 09:28:36;;;;;;;14.38;11.70;;;;;;;11.33;100.00;103451.38;5034035;28;20034;-66
2021/04/14 09:31:13;;;;;;;16.65;12.60;;;;;;;11.47;100.00;103453.31;5032420;28;20518;-71
2021/04/14 09:33:53;;;;;;;23.20;12.65;;;;;;;11.58;100.00;103450.13;5033653;28;20037;-66
2021/04/14 09:36:33;;;;;;;16.42;12.10;;;;;;;11.66;100.00;103458.28;5033927;28;20033;-69
2021/04/14 09:39:36;;;;;;;19.40;13.18;;;;;;;11.76;100.00;103458.84;5033752;28;20033;-70
2021/04/14 09:52:45;;;;;;;16.58;12.15;;;;;;;12.25;100.00;103457.50;5033335;28;20065;-66
2021/04/14 09:55:20;;;;;;;22.75;13.55;;;;;;;12.28;100.00;103452.50;5035234;28;20083;-71
2021/04/14 09:57:49;;;;;;;17.15;13.07;;;;;;;12.29;100.00;103454.19;5035080;28;20488;-69
2021/04/14 10:00:17;;;;;;;17.15;13.40;;;;;;;12.32;100.00;103448.34;5038380;28;20045;-66
2021/04/14 10:02:46;;;;;;;16.50;12.35;;;;;;;12.40;100.00;103454.75;5035421;28;20034;-67
2021/04/14 10:05:12;;;;;;;15.80;12.10;;;;;;;12.48;100.00;103446.41;5047365;28;20036;-67
2021/04/14 10:07:42;;;;;;;19.70;12.82;;;;;;;12.59;100.00;103454.16;5051496;28;20033;-65
2021/04/14 10:10:18;;;;;;;21.83;13.05;;;;;;;12.71;100.00;103458.13;5050618;28;20036;-71
2021/04/14 10:12:44;;;;;;;17.05;13.07;;;;;;;12.81;100.00;103450.41;5064741;28;20088;-66
2021/04/14 10:15:11;;;;;;;15.80;12.55;;;;;;;12.94;100.00;103452.47;5042861;28;20079;-68
2021/04/14 10:17:37;;;;;;;17.13;12.70;;;;;;;13.05;100.00;103449.22;5047456;28;20033;-66
2021/04/14 10:20:21;;;;;;;17.05;13.27;;;;;;;13.14;100.00;103456.25;5037926;28;20408;-65
2021/04/14 10:22:49;;;;;;;18.45;12.52;;;;;;;13.22;100.00;103447.09;5046169;28;20029;-69
2021/04/14 10:26:00;;;;;;;18.92;12.10;;;;;;;13.27;100.00;103459.19;5032632;28;20037;-67
2021/04/14 10:28:27;;;;;;;17.33;11.82;;;;;;;13.32;100.00;103450.34;5050162;28;20415;-67
2021/04/14 10:31:09;;;;;;;18.33;12.63;;;;;;;13.39;100.00;103444.94;5044484;28;20461;-65
2021/04/14 10:33:38;;;;;;;13.90;10.95;;;;;;;13.44;100.00;103443.28;5045848;28;20095;-68
2021/04/14 10:36:14;;;;;;;16.05;11.60;;;;;;;13.49;100.00;103446.28;5033668;28;20029;-65
2021/04/14 10:38:41;;;;;;;16.25;11.27;;;;;;;13.54;100.00;103443.81;5032873;28;20037;-65
2021/04/14 10:41:23;;;;;;;15.15;12.23;;;;;;;13.55;100.00;103440.03;5048381;28;20033;-67
2021/04/14 10:43:50;;;;;;;16.02;12.35;;;;;;;13.62;100.00;103444.72;5037156;28;20029;-67
2021/04/14 10:46:27;;;;;;;17.45;12.40;;;;;;;13.68;100.00;103435.66;5033557;28;20499;-66
2021/04/14 10:49:09;;;;;;;17.35;12.93;;;;;;;13.81;100.00;103438.50;5041436;28;20499;-66
2021/04/14 10:51:43;;;;;;;19.25;12.35;;;;;;;13.95;100.00;103429.31;5046578;28;20510;-67
2021/04/14 10:54:11;;;;;;;15.88;11.63;;;;;;;13.97;100.00;103432.69;5034619;28;20475;-68
2021/04/14 10:56:38;;;;;;;14.32;10.77;;;;;;;13.78;100.00;103433.41;5033514;28;20408;-67
2021/04/14 10:59:08;;;;;;;13.93;11.57;;;;;;;13.86;100.00;103430.50;5034333;28;20499;-67
2021/04/14 11:01:40;;;;;;;15.10;11.73;;;;;;;14.01;100.00;103428.50;5033422;28;20037;-67
2021/04/14 11:04:14;;;;;;;15.07;10.73;;;;;;;14.05;100.00;103418.78;5048939;28;20044;-67
2021/04/14 11:06:50;;;;;;;14.27;10.60;;;;;;;14.32;100.00;103424.44;5052178;28;20029;-67
2021/04/14 11:09:19;;;;;;;13.88;10.93;;;;;;;14.24;100.00;103413.63;5050457;28;20068;-67
2021/04/14 11:11:46;;;;;;;15.10;10.85;;;;;;;14.17;100.00;103413.56;5049613;28;20041;-67
2021/04/14 11:14:14;;;;;;;12.13;10.15;;;;;;;14.26;100.00;103415.13;5039484;28;20111;-68
2021/04/14 11:16:43;;;;;;;14.95;10.40;;;;;;;14.09;100.00;103411.84;5032063;28;20029;-68
2021/04/14 11:19:25;;;;;;;16.15;11.30;;;;;;;13.80;100.00;103407.44;5031820;28;20033;-68
2021/04/14 11:22:08;;;;;;;14.48;9.75;;;;;;;13.80;100.00;103412.94;5034403;28;20384;-68
2021/04/14 11:24:49;;;;;;;13.68;9.70;;;;;;;13.62;100.00;103418.09;5031889;28;20090;-67
2021/04/14 11:27:18;;;;;;;10.30;9.20;;;;;;;13.44;100.00;103421.31;5041329;28;20106;-68
2021/04/14 11:29:44;;;;;;;14.57;9.45;;;;;;;13.38;100.00;103422.13;5043190;28;20076;-67
2021/04/14 11:32:23;;;;;;;18.33;10.80;;;;;;;13.30;100.00;103414.00;5033984;28;20033;-67